Time;durP1;ratioP1;P1;durP2;ratioP2;P2;SDS_P1;SDS_P2;PMS_P1;PMS_P2;Temp;Humidity;BMP_temperature;BMP_pressure;BME280_temperature;BME280_humidity;BME280_pressure;Samples;Min_cycle;Max_cycle;Signal;HPM_P1;HPM_P2
2021/12/16 00:03:32;;;;;;;47.10;21.08;;;;;;;4.18;88.12;97863.63;5030090;28;20049;-74
2021/12/16 00:06:36;;;;;;;51.95;21.63;;;;;;;4.17;88.00;97861.16;5029388;28;20511;-74
2021/12/16 00:08:59;;;;;;;46.85;21.40;;;;;;;4.19;87.82;97867.97;5029427;28;20049;-72
2021/12/16 00:19:28;;;;;;;50.70;22.35;;;;;;;4.22;87.91;97868.53;5029266;28;20049;-72
2021/12/16 00:31:18;;;;;;;47.97;21.73;;;;;;;4.14;87.84;97845.47;5029074;28;20843;-72
2021/12/16 00:33:57;;;;;;;49.03;21.73;;;;;;;4.21;87.58;97856.94;5028637;28;20033;-72
2021/12/16 00:36:23;;;;;;;51.97;23.67;;;;;;;4.23;87.24;97856.69;5028797;28;20153;-72
2021/12/16 00:38:51;;;;;;;47.13;21.50;;;;;;;4.26;86.88;97857.03;5029461;28;20041;-72
2021/12/16 00:41:18;;;;;;;48.97;22.02;;;;;;;4.29;86.80;97858.44;5031945;28;20136;-71
2021/12/16 00:43:50;;;;;;;53.28;22.48;;;;;;;4.28;86.76;97856.78;5068727;28;20048;-71
2021/12/16 00:46:31;;;;;;;47.50;21.10;;;;;;;4.29;87.08;97856.56;5068398;28;20048;-71
2021/12/16 00:49:21;;;;;;;47.58;21.73;;;;;;;4.29;86.96;97859.25;5068960;28;20055;-72
2021/12/16 00:54:35;;;;;;;51.35;22.88;;;;;;;4.34;86.77;97866.63;5068614;28;20133;-72
2021/12/16 00:57:06;;;;;;;52.63;22.58;;;;;;;4.33;87.02;97857.72;5068673;28;20135;-73
2021/12/16 00:59:37;;;;;;;54.88;22.55;;;;;;;4.33;86.77;97865.81;5068405;28;20044;-72
2021/12/16 01:02:18;;;;;;;47.72;22.40;;;;;;;4.36;86.87;97865.31;5068274;28;20043;-71
2021/12/16 01:07:55;;;;;;;47.60;21.70;;;;;;;4.37;87.01;97872.34;5068087;28;20121;-72
2021/12/16 01:35:33;;;;;;;52.80;21.92;;;;;;;4.40;86.27;97868.34;5047776;28;20071;-74
2021/12/16 01:38:41;;;;;;;48.13;22.70;;;;;;;4.38;86.02;97873.97;5047810;28;20504;-74
2021/12/16 01:52:21;;;;;;;54.60;23.95;;;;;;;4.29;86.45;97861.94;5065095;28;20047;-74
2021/12/16 01:55:03;;;;;;;51.30;23.00;;;;;;;4.30;86.81;97865.47;5067793;28;20412;-74
2021/12/16 01:57:34;;;;;;;49.67;22.03;;;;;;;4.32;86.43;97863.34;5067464;28;20052;-74
2021/12/16 02:00:08;;;;;;;50.78;23.33;;;;;;;4.28;85.90;97857.63;5067849;28;20283;-74
2021/12/16 02:02:42;;;;;;;45.17;22.85;;;;;;;4.24;85.58;97856.47;5067394;28;20068;-74
2021/12/16 02:08:21;;;;;;;47.28;22.15;;;;;;;4.02;85.71;97858.16;5055846;28;20507;-73
2021/12/16 02:10:59;;;;;;;46.50;21.90;;;;;;;4.01;86.59;97857.34;5067576;28;20113;-74
2021/12/16 02:13:46;;;;;;;46.60;21.85;;;;;;;4.08;86.79;97857.22;5067060;28;20432;-74
2021/12/16 02:27:45;;;;;;;43.15;21.05;;;;;;;4.07;86.96;97877.97;5066631;28;20051;-74
2021/12/16 02:33:23;;;;;;;51.67;24.92;;;;;;;4.02;87.08;97869.78;5056030;28;20518;-73
2021/12/16 02:36:00;;;;;;;51.40;24.10;;;;;;;4.06;87.13;97868.22;5067512;28;20045;-74
2021/12/16 02:38:32;;;;;;;51.22;23.25;;;;;;;4.08;87.21;97855.34;5071107;28;20064;-74
2021/12/16 02:40:59;;;;;;;50.72;23.45;;;;;;;4.10;87.37;97847.00;5071287;28;20119;-73
2021/12/16 02:43:53;;;;;;;52.60;22.77;;;;;;;4.10;87.15;97849.72;5070297;28;20047;-75
2021/12/16 02:49:04;;;;;;;45.60;22.73;;;;;;;4.17;87.05;97856.59;5036143;28;20055;-73
2021/12/16 02:51:30;;;;;;;49.22;22.98;;;;;;;4.21;86.96;97843.44;5071192;28;20446;-73
2021/12/16 02:54:02;;;;;;;46.90;22.95;;;;;;;4.26;86.78;97850.81;5071299;28;20263;-72
2021/12/16 02:56:29;;;;;;;49.90;22.70;;;;;;;4.27;86.53;97855.97;5070558;28;20492;-74
2021/12/16 02:58:57;;;;;;;45.47;21.58;;;;;;;4.30;86.22;97854.69;5070987;28;20062;-72
2021/12/16 03:01:30;;;;;;;46.38;22.23;;;;;;;4.30;86.02;97860.06;5070616;28;20041;-73
2021/12/16 03:03:59;;;;;;;47.50;22.35;;;;;;;4.28;86.02;97864.88;5070994;28;20048;-72
2021/12/16 03:06:29;;;;;;;50.30;23.95;;;;;;;4.27;86.28;97865.94;5070457;28;20041;-71
2021/12/16 03:08:55;;;;;;;45.17;22.77;;;;;;;4.24;86.22;97864.56;5070358;28;20537;-72
2021/12/16 03:11:31;;;;;;;45.92;23.27;;;;;;;4.26;86.26;97865.13;5070392;28;20048;-71
2021/12/16 03:14:21;;;;;;;46.92;22.15;;;;;;;4.24;85.80;97864.56;5069933;28;20052;-72
2021/12/16 03:17:01;;;;;;;50.20;23.25;;;;;;;4.22;85.97;97868.53;5070498;28;20040;-72
2021/12/16 03:19:39;;;;;;;51.47;23.70;;;;;;;4.13;85.98;97868.13;5070381;28;20044;-74
2021/12/16 03:22:07;;;;;;;52.58;24.83;;;;;;;4.10;86.04;97873.97;5070278;28;20113;-73
2021/12/16 03:24:58;;;;;;;53.05;24.95;;;;;;;4.07;86.29;97877.13;5070386;28;20455;-72
2021/12/16 03:28:09;;;;;;;55.08;24.58;;;;;;;4.04;86.40;97877.63;5069984;28;20044;-74
2021/12/16 03:33:42;;;;;;;55.90;24.75;;;;;;;3.93;86.51;97882.81;5069919;28;20048;-71
2021/12/16 03:36:25;;;;;;;56.45;25.20;;;;;;;3.90;86.70;97883.25;5069789;28;20051;-71
2021/12/16 03:38:54;;;;;;;50.90;23.50;;;;;;;3.86;87.27;97892.06;5069921;28;20411;-72
2021/12/16 03:41:22;;;;;;;54.83;24.42;;;;;;;3.88;87.58;97885.38;5066035;28;20289;-73
2021/12/16 03:43:50;;;;;;;50.40;23.73;;;;;;;3.84;87.72;97889.63;5070059;28;20049;-72
2021/12/16 03:46:27;;;;;;;50.03;24.45;;;;;;;3.83;87.70;97893.38;5069771;28;20044;-72
2021/12/16 03:48:59;;;;;;;50.80;24.27;;;;;;;3.87;87.60;97891.84;5069079;28;20048;-73
2021/12/16 03:51:28;;;;;;;60.67;25.98;;;;;;;3.89;87.36;97894.28;5069624;28;20760;-72
2021/12/16 03:54:00;;;;;;;55.80;25.23;;;;;;;3.90;87.86;97893.22;5070023;28;20044;-72
2021/12/16 03:56:27;;;;;;;50.63;24.13;;;;;;;3.90;87.91;97899.44;5069850;28;20041;-72
2021/12/16 03:58:55;;;;;;;48.05;23.60;;;;;;;3.87;87.70;97899.94;5069549;28;20036;-72
2021/12/16 04:01:25;;;;;;;62.63;27.00;;;;;;;3.85;87.57;97907.41;5069156;28;20056;-72
2021/12/16 04:03:51;;;;;;;58.45;25.30;;;;;;;3.90;87.74;97914.78;5069924;28;20051;-73
2021/12/16 04:06:20;;;;;;;58.65;26.63;;;;;;;3.96;87.49;97918.41;5069237;28;20053;-75
2021/12/16 04:08:47;;;;;;;50.85;23.83;;;;;;;3.95;87.46;97916.78;5069595;28;20048;-73
2021/12/16 04:11:20;;;;;;;58.53;26.48;;;;;;;3.89;87.33;97919.38;5069247;28;20060;-72
2021/12/16 04:13:55;;;;;;;54.55;26.77;;;;;;;3.86;87.40;97909.06;5069853;28;20385;-72
2021/12/16 04:16:27;;;;;;;56.33;26.73;;;;;;;3.86;87.77;97914.47;5068829;28;20056;-72
2021/12/16 04:18:54;;;;;;;56.30;26.10;;;;;;;3.87;88.07;97926.06;5069391;28;20044;-73
2021/12/16 04:21:21;;;;;;;56.30;25.98;;;;;;;3.91;87.65;97921.81;5068851;28;20049;-73
2021/12/16 04:23:49;;;;;;;57.00;24.83;;;;;;;3.88;87.76;97922.31;5069477;28;20050;-74
2021/12/16 04:26:17;;;;;;;56.65;25.90;;;;;;;3.84;87.65;97911.16;5068619;28;20410;-72
2021/12/16 04:28:43;;;;;;;54.22;25.35;;;;;;;3.79;88.00;97912.94;5069278;28;20040;-72
2021/12/16 04:31:10;;;;;;;57.28;25.20;;;;;;;3.72;88.30;97918.47;5068547;28;20048;-72
2021/12/16 04:33:39;;;;;;;56.05;24.15;;;;;;;3.69;88.27;97918.91;5069553;28;20044;-74
2021/12/16 04:36:08;;;;;;;63.83;24.80;;;;;;;3.68;88.62;97928.06;5068440;28;20641;-72
2021/12/16 04:38:36;;;;;;;57.03;25.35;;;;;;;3.72;88.66;97929.22;5069116;28;20064;-72
2021/12/16 04:41:03;;;;;;;55.70;23.40;;;;;;;3.72;88.63;97925.72;5068293;28;20070;-72
2021/12/16 04:43:38;;;;;;;58.97;23.73;;;;;;;3.75;88.58;97939.53;5068612;28;20048;-73
2021/12/16 04:46:06;;;;;;;58.70;24.13;;;;;;;3.72;88.38;97934.63;5068419;28;20040;-72
2021/12/16 04:48:33;;;;;;;50.70;22.25;;;;;;;3.75;88.14;97928.75;5068754;28;20044;-72
2021/12/16 04:51:01;;;;;;;53.20;23.92;;;;;;;3.68;87.45;97936.13;5068529;28;20071;-73
2021/12/16 04:53:28;;;;;;;47.80;22.63;;;;;;;3.59;87.77;97924.88;5068545;28;20051;-72
2021/12/16 04:55:55;;;;;;;46.08;22.45;;;;;;;3.51;87.93;97937.91;5068285;28;20057;-72
2021/12/16 04:58:21;;;;;;;38.03;19.10;;;;;;;3.40;88.49;97940.34;5067979;28;20056;-72
2021/12/16 05:00:48;;;;;;;39.88;19.80;;;;;;;3.33;88.47;97936.94;5067327;28;20040;-72
2021/12/16 05:03:14;;;;;;;40.85;19.63;;;;;;;3.30;89.16;97934.72;5068129;28;20044;-72
2021/12/16 05:05:41;;;;;;;45.28;19.25;;;;;;;3.30;89.29;97931.22;5068289;28;20044;-72
2021/12/16 05:08:09;;;;;;;43.63;20.15;;;;;;;3.35;89.61;97934.84;5067932;28;20052;-72
2021/12/16 05:10:36;;;;;;;41.88;19.60;;;;;;;3.40;89.56;97948.44;5068203;28;20508;-72
2021/12/16 05:13:04;;;;;;;41.78;20.08;;;;;;;3.39;89.28;97941.41;5050015;28;20391;-72
2021/12/16 05:15:35;;;;;;;42.25;19.38;;;;;;;3.42;89.42;97939.28;5068172;28;20044;-73
2021/12/16 05:18:05;;;;;;;42.50;18.75;;;;;;;3.44;89.45;97937.19;5067637;28;20148;-71
2021/12/16 05:20:35;;;;;;;42.08;18.33;;;;;;;3.43;88.85;97939.06;5068013;28;20782;-72
2021/12/16 05:26:02;;;;;;;38.67;18.73;;;;;;;3.39;89.05;97946.81;5068293;28;20632;-72
2021/12/16 05:28:30;;;;;;;38.25;18.23;;;;;;;3.37;89.02;97953.47;5067571;28;20090;-73
2021/12/16 05:30:57;;;;;;;37.72;18.50;;;;;;;3.33;89.01;97958.47;5068122;28;20075;-72
2021/12/16 05:33:25;;;;;;;40.13;18.10;;;;;;;3.32;89.09;97953.34;5067146;28;20045;-72
2021/12/16 05:35:52;;;;;;;37.60;17.30;;;;;;;3.33;89.41;97960.34;5067999;28;20041;-72
2021/12/16 05:38:19;;;;;;;36.28;17.25;;;;;;;3.34;89.35;97957.44;5066878;28;20057;-73
2021/12/16 05:40:46;;;;;;;37.03;16.65;;;;;;;3.39;89.44;97970.19;5067555;28;20051;-72
2021/12/16 05:43:16;;;;;;;38.40;17.45;;;;;;;3.34;89.30;97968.22;5066881;28;20049;-72
2021/12/16 05:45:44;;;;;;;38.00;16.48;;;;;;;3.39;89.72;97973.72;5067810;28;20045;-72
2021/12/16 05:48:15;;;;;;;35.30;17.23;;;;;;;3.45;88.92;97976.56;5067004;28;20775;-72
2021/12/16 05:50:45;;;;;;;37.05;16.95;;;;;;;3.52;88.74;97977.25;5067959;28;20041;-72
2021/12/16 05:53:11;;;;;;;39.55;18.35;;;;;;;3.48;88.28;97986.84;5067317;28;20047;-73
2021/12/16 05:55:39;;;;;;;39.50;17.38;;;;;;;3.52;88.31;97986.16;5067483;28;20160;-73
2021/12/16 05:58:08;;;;;;;40.90;18.42;;;;;;;3.54;88.01;97986.72;5066915;28;20048;-73
2021/12/16 06:00:40;;;;;;;37.17;17.42;;;;;;;3.55;88.67;97988.38;5067544;28;20049;-72
2021/12/16 06:03:08;;;;;;;39.87;17.43;;;;;;;3.61;88.81;97986.63;5067164;28;20044;-73
2021/12/16 06:05:34;;;;;;;41.63;18.58;;;;;;;3.63;87.81;97989.91;5067551;28;20718;-73
2021/12/16 06:08:01;;;;;;;40.45;18.38;;;;;;;3.61;87.78;97986.63;5067499;28;20055;-73
2021/12/16 06:11:03;;;;;;;38.05;17.88;;;;;;;3.64;87.85;97984.28;5067129;28;20048;-73
2021/12/16 06:13:31;;;;;;;37.80;17.15;;;;;;;3.64;87.62;97999.63;5071090;28;20476;-72
2021/12/16 06:22:23;;;;;;;40.33;16.83;;;;;;;3.68;87.63;97998.09;5071700;28;20540;-72
2021/12/16 06:27:07;;;;;;;35.53;16.45;;;;;;;3.59;86.73;98010.25;5055675;28;20521;-74
2021/12/16 06:29:33;;;;;;;;;;;;;;;3.47;87.34;98004.06;5071722;28;20483;-74
2021/12/16 06:32:02;;;;;;;34.58;15.43;;;;;;;3.35;87.97;97999.47;5071037;28;19933;-74
2021/12/16 06:34:28;;;;;;;36.58;16.42;;;;;;;3.35;88.10;97998.66;5070931;28;20048;-76
2021/12/16 06:36:55;;;;;;;37.60;16.27;;;;;;;3.33;88.68;98001.56;5071092;28;20049;-74
2021/12/16 06:39:22;;;;;;;38.28;16.48;;;;;;;3.36;88.92;97995.72;5070690;28;20064;-73
2021/12/16 06:41:48;;;;;;;40.17;16.98;;;;;;;3.39;89.08;97991.72;5070980;28;20060;-74
2021/12/16 06:44:21;;;;;;;37.42;16.50;;;;;;;3.44;89.12;97986.47;5070881;28;20453;-74
2021/12/16 06:46:48;;;;;;;35.60;15.85;;;;;;;3.49;88.45;97993.84;5071157;28;20048;-72
2021/12/16 06:49:18;;;;;;;36.20;15.98;;;;;;;3.54;88.47;97993.97;5071017;28;20106;-71
2021/12/16 06:51:50;;;;;;;34.88;16.73;;;;;;;3.57;88.52;97998.91;5071181;28;20048;-72
2021/12/16 06:54:24;;;;;;;34.05;15.50;;;;;;;3.58;88.47;97989.78;5070611;28;20127;-72
2021/12/16 06:57:00;;;;;;;36.88;16.58;;;;;;;3.61;88.11;97992.03;5070727;28;20044;-73
2021/12/16 06:59:31;;;;;;;33.28;15.02;;;;;;;3.64;87.41;97996.91;5069006;28;20044;-76
2021/12/16 07:02:07;;;;;;;32.72;14.70;;;;;;;3.65;87.50;98001.25;5069052;28;20051;-77
2021/12/16 07:04:36;;;;;;;31.98;14.55;;;;;;;3.61;86.63;98008.19;5070623;28;20052;-73
2021/12/16 07:07:04;;;;;;;32.42;14.18;;;;;;;3.58;86.78;98014.03;5069910;28;20059;-72
2021/12/16 07:09:31;;;;;;;31.50;14.27;;;;;;;3.58;87.28;98020.22;5070596;28;20044;-74
2021/12/16 07:11:59;;;;;;;30.70;14.05;;;;;;;3.60;86.67;98017.28;5070544;28;20056;-73
2021/12/16 07:14:36;;;;;;;27.77;13.95;;;;;;;3.57;86.70;98018.59;5069834;28;20148;-74
2021/12/16 07:17:06;;;;;;;28.50;12.93;;;;;;;3.54;86.57;98034.38;5069986;28;20072;-72
2021/12/16 07:19:33;;;;;;;26.60;12.98;;;;;;;3.56;86.24;98032.31;5070213;28;20056;-73
2021/12/16 07:22:00;;;;;;;33.78;14.93;;;;;;;3.56;86.51;98037.69;5070510;28;20052;-73
2021/12/16 07:24:27;;;;;;;28.02;13.75;;;;;;;3.60;86.47;98045.06;5068891;28;20067;-73
2021/12/16 07:26:54;;;;;;;28.92;13.15;;;;;;;3.69;87.16;98047.41;5070056;28;20118;-73
2021/12/16 07:29:21;;;;;;;36.63;14.77;;;;;;;3.77;87.01;98053.28;5069642;28;20059;-73
2021/12/16 07:31:47;;;;;;;29.80;14.25;;;;;;;3.83;87.02;98049.66;5070448;28;20048;-73
2021/12/16 07:34:14;;;;;;;37.50;14.48;;;;;;;3.88;87.25;98052.47;5069689;28;20523;-73
2021/12/16 07:36:44;;;;;;;34.88;15.85;;;;;;;3.95;87.11;98056.94;5070137;28;20044;-74
2021/12/16 07:39:16;;;;;;;32.08;14.43;;;;;;;3.99;87.32;98053.53;5069433;28;20151;-74
2021/12/16 07:41:46;;;;;;;34.05;15.00;;;;;;;3.98;86.96;98059.16;5069806;28;20048;-74
2021/12/16 07:44:14;;;;;;;38.45;16.25;;;;;;;4.01;87.01;98056.00;5069515;28;20036;-74
2021/12/16 07:46:42;;;;;;;37.38;15.18;;;;;;;4.08;86.57;98062.09;5070282;28;20059;-74
2021/12/16 07:49:12;;;;;;;33.38;15.32;;;;;;;4.13;86.79;98064.91;5069130;28;20048;-73
2021/12/16 07:51:39;;;;;;;32.55;14.40;;;;;;;4.13;86.44;98064.91;5069934;28;20064;-76
2021/12/16 07:54:08;;;;;;;30.17;14.13;;;;;;;4.17;86.47;98066.06;5069434;28;20056;-73
2021/12/16 07:56:36;;;;;;;36.33;15.50;;;;;;;4.18;86.62;98052.38;5069874;28;20400;-73
2021/12/16 07:59:02;;;;;;;31.25;14.10;;;;;;;4.20;86.49;98065.59;5069207;28;20174;-72
2021/12/16 08:01:29;;;;;;;29.63;13.02;;;;;;;4.24;86.11;98068.66;5068206;28;20075;-74
2021/12/16 08:03:56;;;;;;;27.25;12.77;;;;;;;4.26;84.74;98070.06;5069665;28;20056;-75
2021/12/16 08:06:26;;;;;;;24.77;12.18;;;;;;;4.24;83.93;98076.75;5069088;28;20118;-74
2021/12/16 08:08:57;;;;;;;27.55;12.25;;;;;;;4.24;83.94;98071.38;5069379;28;20048;-75
2021/12/16 08:11:25;;;;;;;29.45;12.82;;;;;;;4.26;83.59;98075.44;5068695;28;20044;-75
2021/12/16 08:13:54;;;;;;;24.80;12.15;;;;;;;4.29;83.49;98084.97;5069592;28;20079;-74
2021/12/16 08:16:22;;;;;;;29.70;13.68;;;;;;;4.29;83.37;98077.69;5069094;28;20057;-73
2021/12/16 08:18:49;;;;;;;25.08;11.77;;;;;;;4.32;83.75;98085.28;5069115;28;20040;-74
2021/12/16 08:21:15;;;;;;;29.75;13.52;;;;;;;4.36;83.91;98081.06;5068757;28;20048;-73
2021/12/16 08:23:42;;;;;;;25.58;11.68;;;;;;;4.37;83.00;98082.72;5069103;28;20110;-74
2021/12/16 08:26:09;;;;;;;24.40;11.77;;;;;;;4.40;82.74;98082.25;5066505;28;20052;-74
2021/12/16 08:28:35;;;;;;;22.38;11.27;;;;;;;4.40;82.74;98086.81;5068515;28;20415;-74
2021/12/16 08:31:05;;;;;;;23.67;11.32;;;;;;;4.27;81.84;98082.47;5067769;28;20052;-72
2021/12/16 08:33:32;;;;;;;24.15;11.27;;;;;;;4.28;83.08;98088.69;5069085;28;20048;-74
2021/12/16 08:35:58;;;;;;;20.88;11.15;;;;;;;4.35;83.79;98087.53;5068669;28;20051;-76
2021/12/16 08:38:26;;;;;;;21.75;10.52;;;;;;;4.43;84.31;98092.53;5068117;28;20040;-75
2021/12/16 08:40:56;;;;;;;22.17;10.93;;;;;;;4.48;83.48;98093.72;5068531;28;20052;-76
2021/12/16 08:43:24;;;;;;;23.23;11.45;;;;;;;4.45;83.88;98092.34;5068034;28;20495;-76
2021/12/16 08:45:50;;;;;;;21.50;10.52;;;;;;;4.51;82.67;98099.47;5068611;28;20056;-76
2021/12/16 08:48:18;;;;;;;19.08;9.95;;;;;;;4.50;82.34;98108.63;5068350;28;20056;-78
2021/12/16 08:50:49;;;;;;;21.08;10.02;;;;;;;4.55;82.43;98105.22;5068247;28;20056;-77
2021/12/16 08:53:16;;;;;;;21.20;10.27;;;;;;;4.59;82.77;98103.69;5068186;28;20052;-76
2021/12/16 08:55:45;;;;;;;21.60;10.77;;;;;;;4.63;81.91;98107.56;5068227;28;20515;-76
2021/12/16 08:58:12;;;;;;;21.17;11.50;;;;;;;4.68;82.15;98113.06;5068072;28;20056;-78
2021/12/16 09:00:42;;;;;;;20.15;9.50;;;;;;;4.68;81.42;98104.97;5068223;28;20048;-75
2021/12/16 09:03:10;;;;;;;18.80;9.32;;;;;;;4.67;82.13;98103.31;5067902;28;20044;-76
2021/12/16 09:05:38;;;;;;;20.95;9.77;;;;;;;4.72;82.39;98114.22;5068425;28;20415;-76
2021/12/16 09:08:05;;;;;;;20.55;9.52;;;;;;;4.77;82.67;98114.34;5067738;28;20045;-75
2021/12/16 09:10:35;;;;;;;20.63;9.35;;;;;;;4.84;82.82;98115.03;5068321;28;20055;-76
2021/12/16 09:13:05;;;;;;;17.05;8.43;;;;;;;4.88;81.36;98110.78;5068099;28;20694;-75
2021/12/16 09:15:37;;;;;;;14.35;7.20;;;;;;;4.92;80.70;98122.75;5068283;28;20048;-77
2021/12/16 09:18:05;;;;;;;16.52;7.88;;;;;;;4.86;79.78;98128.31;5067560;28;20048;-78
2021/12/16 09:20:33;;;;;;;14.25;7.32;;;;;;;4.91;80.05;98126.53;5068020;28;20045;-78
2021/12/16 09:23:01;;;;;;;17.33;8.68;;;;;;;4.94;80.52;98130.63;5068232;28;20052;-78
2021/12/16 09:25:28;;;;;;;18.83;8.85;;;;;;;5.02;81.08;98134.84;5067835;28;20771;-76
2021/12/16 09:27:55;;;;;;;15.48;7.85;;;;;;;5.11;81.79;98130.69;5067788;28;20048;-76
2021/12/16 09:30:24;;;;;;;15.85;7.70;;;;;;;5.18;80.11;98134.09;5067404;28;20436;-78
2021/12/16 09:32:53;;;;;;;17.45;8.30;;;;;;;5.18;79.99;98131.38;5067827;28;20500;-75
2021/12/16 09:35:20;;;;;;;14.07;7.80;;;;;;;5.27;81.08;98135.31;5067404;28;20072;-77
2021/12/16 09:37:47;;;;;;;18.08;8.23;;;;;;;5.33;81.23;98136.28;5067630;28;20051;-78
2021/12/16 09:40:21;;;;;;;16.27;8.32;;;;;;;5.35;80.26;98136.84;5067251;28;20040;-77
2021/12/16 09:42:49;;;;;;;17.40;7.85;;;;;;;5.40;79.00;98128.84;5067812;28;20052;-78
2021/12/16 09:45:16;;;;;;;13.60;7.25;;;;;;;5.43;79.19;98137.28;5067359;28;20079;-78
2021/12/16 09:47:44;;;;;;;13.07;6.78;;;;;;;5.42;79.01;98132.09;5067269;28;20151;-75
2021/12/16 09:50:14;;;;;;;13.00;6.80;;;;;;;5.33;77.48;98128.97;5067182;28;20048;-78
2021/12/16 09:52:41;;;;;;;14.23;6.68;;;;;;;5.23;76.95;98129.59;5067369;28;20040;-77
2021/12/16 09:55:09;;;;;;;16.30;7.82;;;;;;;5.23;78.07;98135.00;5067048;28;20043;-76
2021/12/16 09:57:38;;;;;;;12.73;6.43;;;;;;;5.22;78.98;98127.16;5066891;28;20052;-78
2021/12/16 10:00:06;;;;;;;12.07;6.22;;;;;;;5.28;79.61;98126.19;5066954;28;20052;-76
2021/12/16 10:02:32;;;;;;;12.90;6.70;;;;;;;5.31;78.96;98125.69;5066959;28;20060;-77
2021/12/16 10:04:59;;;;;;;13.00;6.25;;;;;;;5.32;78.96;98123.81;5067488;28;20055;-77
2021/12/16 10:07:28;;;;;;;11.40;5.85;;;;;;;5.30;78.81;98120.53;5066948;28;20045;-75
2021/12/16 10:09:56;;;;;;;10.55;5.82;;;;;;;5.23;77.91;98117.97;5067545;28;20475;-75
2021/12/16 10:12:28;;;;;;;9.20;4.78;;;;;;;5.19;77.64;98116.81;5066842;28;20076;-78
2021/12/16 10:15:05;;;;;;;10.13;5.30;;;;;;;5.06;77.92;98111.69;5067289;28;20576;-79
2021/12/16 10:17:34;;;;;;;11.30;4.90;;;;;;;4.94;78.15;98115.22;5067113;28;20052;-76
2021/12/16 10:20:09;;;;;;;10.02;4.95;;;;;;;4.96;78.05;98113.13;5067470;28;20048;-78
2021/12/16 10:22:40;;;;;;;9.30;5.38;;;;;;;4.95;78.69;98114.16;5067082;28;20060;-79
2021/12/16 10:25:24;;;;;;;9.07;4.43;;;;;;;5.00;79.25;98120.75;5067020;28;20687;-77
2021/12/16 10:27:57;;;;;;;8.85;4.15;;;;;;;5.07;78.99;98108.75;5066950;28;20044;-76
2021/12/16 10:30:26;;;;;;;;;;;;;;;5.11;78.27;98114.47;5067458;28;20047;-75
2021/12/16 10:32:54;;;;;;;8.63;4.10;;;;;;;5.10;78.58;98110.97;5066709;28;19932;-76
2021/12/16 10:35:28;;;;;;;7.72;4.20;;;;;;;5.16;79.27;98103.78;5066563;28;20139;-75
2021/12/16 10:37:58;;;;;;;9.45;4.55;;;;;;;5.30;78.81;98107.84;5066622;28;20048;-77
2021/12/16 10:40:34;;;;;;;9.32;4.78;;;;;;;5.39;77.34;98106.41;5066199;28;20052;-75
2021/12/16 10:43:06;;;;;;;9.57;4.60;;;;;;;5.38;76.84;98104.78;5066844;28;20041;-76
2021/12/16 10:45:37;;;;;;;10.20;5.30;;;;;;;5.52;78.25;98104.47;5066857;28;20462;-77
2021/12/16 10:48:20;;;;;;;10.35;5.15;;;;;;;5.62;78.28;98099.25;5066241;28;20044;-76
2021/12/16 10:50:49;;;;;;;7.28;3.38;;;;;;;5.65;77.59;98098.75;5067046;28;20056;-77
2021/12/16 10:53:16;;;;;;;8.98;4.68;;;;;;;5.58;76.66;98108.88;5066797;28;20075;-75
2021/12/16 10:55:56;;;;;;;8.40;4.78;;;;;;;5.48;76.38;98098.72;5066796;28;20044;-77
2021/12/16 10:58:48;;;;;;;11.25;5.00;;;;;;;5.38;78.01;98099.38;5068702;28;20048;-77
2021/12/16 11:01:55;;;;;;;10.55;5.05;;;;;;;5.30;78.92;98099.75;5070394;28;20044;-74
2021/12/16 11:04:26;;;;;;;9.27;5.20;;;;;;;5.22;79.36;98089.34;5067476;28;20048;-76
2021/12/16 11:06:55;;;;;;;9.20;5.05;;;;;;;5.19;78.82;98096.03;5070414;28;20063;-76
2021/12/16 11:09:33;;;;;;;12.52;5.63;;;;;;;5.09;78.65;98086.91;5070342;28;20052;-76
2021/12/16 11:12:14;;;;;;;12.02;5.78;;;;;;;5.12;80.27;98091.84;5070429;28;20044;-76
2021/12/16 11:14:43;;;;;;;10.68;5.65;;;;;;;5.16;80.69;98092.97;5070594;28;20055;-76
2021/12/16 11:17:15;;;;;;;12.43;6.80;;;;;;;5.21;81.22;98090.38;5069786;28;20764;-76
2021/12/16 11:19:45;;;;;;;13.13;5.95;;;;;;;5.34;81.18;98092.81;5070359;28;20531;-76
2021/12/16 11:22:16;;;;;;;10.85;5.63;;;;;;;5.41;79.32;98096.16;5069996;28;20047;-76
2021/12/16 11:24:43;;;;;;;10.10;5.38;;;;;;;5.35;78.43;98091.72;5070306;28;20057;-76
2021/12/16 11:27:28;;;;;;;11.05;5.40;;;;;;;5.41;79.87;98096.16;5069469;28;20049;-75
2021/12/16 11:29:57;;;;;;;10.30;5.50;;;;;;;5.44;78.73;98093.00;5070245;28;20043;-75
2021/12/16 11:32:43;;;;;;;10.82;5.63;;;;;;;5.52;79.54;98099.06;5070032;28;20507;-75
2021/12/16 11:35:30;;;;;;;10.70;5.30;;;;;;;5.60;79.37;98091.38;5069507;28;20051;-75
2021/12/16 11:37:58;;;;;;;10.32;5.55;;;;;;;5.65;79.89;98087.94;5069974;28;20547;-77
2021/12/16 11:40:26;;;;;;;11.38;5.78;;;;;;;5.73;80.42;98090.25;5069337;28;20044;-78
2021/12/16 11:43:02;;;;;;;9.82;5.60;;;;;;;5.80;79.45;98090.09;5070156;28;20041;-76
2021/12/16 11:45:36;;;;;;;12.85;6.15;;;;;;;5.90;78.32;98084.84;5069477;28;20060;-75
2021/12/16 11:48:06;;;;;;;9.90;5.80;;;;;;;5.87;76.88;98080.75;5069189;28;20052;-77
2021/12/16 11:50:36;;;;;;;9.65;5.43;;;;;;;5.81;75.77;98081.75;5069760;28;20492;-78
2021/12/16 11:53:04;;;;;;;9.15;4.68;;;;;;;5.70;75.63;98085.34;5069255;28;20499;-76
2021/12/16 11:55:36;;;;;;;9.15;4.72;;;;;;;5.62;76.55;98080.31;5069972;28;20052;-78
2021/12/16 11:58:05;;;;;;;11.63;5.95;;;;;;;5.58;76.80;98092.66;5068676;28;20580;-75
2021/12/16 12:00:36;;;;;;;10.48;5.80;;;;;;;5.46;76.87;98096.25;5069285;28;20048;-76
2021/12/16 12:03:07;;;;;;;10.98;5.95;;;;;;;5.43;77.87;98091.34;5068839;28;20381;-75
2021/12/16 12:05:37;;;;;;;10.45;5.78;;;;;;;5.42;77.75;98086.19;5069333;28;20048;-72
2021/12/16 12:08:07;;;;;;;44.08;22.98;;;;;;;5.39;79.32;98095.59;5068582;28;20051;-72
2021/12/16 12:10:39;;;;;;;18.52;10.23;;;;;;;5.42;81.38;98087.00;5068808;28;20051;-74
2021/12/16 12:13:07;;;;;;;17.33;8.80;;;;;;;5.48;82.00;98091.44;5068484;28;20040;-76
2021/12/16 12:15:36;;;;;;;14.85;7.88;;;;;;;5.59;81.21;98088.94;5069885;28;20130;-74
2021/12/16 12:18:04;;;;;;;15.93;8.80;;;;;;;5.59;81.51;98088.94;5068433;28;20080;-75
2021/12/16 12:20:36;;;;;;;16.85;9.18;;;;;;;5.61;81.30;98086.78;5069199;28;20056;-73
2021/12/16 12:23:03;;;;;;;16.85;8.77;;;;;;;5.58;80.88;98081.88;5068684;28;20048;-72
2021/12/16 12:25:29;;;;;;;16.50;8.52;;;;;;;5.55;81.26;98082.38;5069167;28;20048;-77
2021/12/16 12:27:56;;;;;;;17.98;8.88;;;;;;;5.58;81.32;98087.28;5069119;28;20502;-76
2021/12/16 12:30:22;;;;;;;17.83;9.07;;;;;;;5.61;81.27;98084.09;5068740;28;20048;-78
2021/12/16 12:32:52;;;;;;;17.42;9.35;;;;;;;5.62;81.67;98094.66;5068856;28;20742;-75
2021/12/16 12:35:21;;;;;;;17.33;8.73;;;;;;;5.65;82.16;98093.34;5068642;28;20075;-75
2021/12/16 12:37:53;;;;;;;18.42;9.10;;;;;;;5.73;81.07;98095.66;5068823;28;20048;-75
2021/12/16 12:40:24;;;;;;;14.85;8.10;;;;;;;5.77;80.43;98099.50;5068425;28;20055;-73
2021/12/16 12:42:53;;;;;;;14.85;8.27;;;;;;;5.79;80.57;98094.66;5068663;28;20045;-73
2021/12/16 12:45:23;;;;;;;15.25;7.93;;;;;;;5.79;81.15;98094.66;5068374;28;20074;-74
2021/12/16 12:47:55;;;;;;;17.48;8.48;;;;;;;5.77;81.37;98094.09;5068223;28;20535;-74
2021/12/16 12:50:24;;;;;;;16.13;8.38;;;;;;;5.84;81.49;98097.44;5068337;28;20048;-75
2021/12/16 12:52:56;;;;;;;16.05;8.05;;;;;;;5.96;81.26;98095.53;5068645;28;20060;-73
2021/12/16 12:55:29;;;;;;;16.13;7.85;;;;;;;6.00;80.79;98099.41;5067335;28;20503;-74
2021/12/16 12:58:03;;;;;;;14.65;8.27;;;;;;;6.03;80.34;98094.56;5068000;28;20157;-75
2021/12/16 13:00:31;;;;;;;15.40;7.15;;;;;;;6.03;78.96;98100.78;5066776;28;20055;-75
2021/12/16 13:03:00;;;;;;;14.63;7.70;;;;;;;5.99;79.09;98097.75;5068323;28;20048;-75
2021/12/16 13:05:28;;;;;;;15.68;7.53;;;;;;;6.05;79.44;98095.13;5066771;28;20048;-75
2021/12/16 13:08:00;;;;;;;16.25;7.80;;;;;;;6.00;79.27;98088.59;5067662;28;20036;-74
2021/12/16 13:10:31;;;;;;;14.90;7.65;;;;;;;6.05;79.19;98095.94;5066411;28;20123;-74
2021/12/16 13:13:23;;;;;;;18.15;7.57;;;;;;;6.10;79.37;98095.19;5068104;28;20046;-74
2021/12/16 13:16:00;;;;;;;15.23;7.88;;;;;;;6.12;79.02;98087.69;5067506;28;20047;-75
2021/12/16 13:24:23;;;;;;;15.05;8.07;;;;;;;6.03;76.90;98089.16;5067313;28;20102;-74
2021/12/16 13:27:03;;;;;;;16.92;8.43;;;;;;;5.97;78.00;98089.06;5066874;28;20603;-74
2021/12/16 13:29:34;;;;;;;15.13;8.65;;;;;;;6.00;78.47;98095.84;5067443;28;20041;-74